createdAt,value
2023-04-08T00:01:42.349Z,9.20
2023-04-08T00:04:14.397Z,9.20
2023-04-08T00:06:42.308Z,9.20
2023-04-08T00:09:10.383Z,9.20
2023-04-08T00:11:38.789Z,9.20
2023-04-08T00:14:06.669Z,9.10
2023-04-08T00:16:35.167Z,9.10
2023-04-08T00:19:03.050Z,9.10
2023-04-08T00:21:32.230Z,9.10
2023-04-08T00:24:00.639Z,9.10
2023-04-08T00:26:28.522Z,9.10
2023-04-08T00:28:56.336Z,9.10
2023-04-08T00:31:24.293Z,9.10
2023-04-08T00:33:52.275Z,9.00
2023-04-08T00:36:20.152Z,9.10
2023-04-08T00:38:49.549Z,9.10
2023-04-08T00:41:17.435Z,9.00
2023-04-08T00:43:45.302Z,9.10
2023-04-08T00:46:13.355Z,9.10
2023-04-08T00:48:41.290Z,9.00
2023-04-08T00:51:09.470Z,9.00
2023-04-08T00:53:37.324Z,9.00
2023-04-08T00:56:06.808Z,9.00
2023-04-08T00:58:34.736Z,9.00
2023-04-08T01:01:07.745Z,9.00
2023-04-08T01:03:43.404Z,9.00
2023-04-08T01:06:16.580Z,9.00
2023-04-08T01:08:45.435Z,9.00
2023-04-08T01:11:15.391Z,9.00
2023-04-08T01:13:45.223Z,9.00
2023-04-08T01:16:17.623Z,8.90
2023-04-08T01:18:46.203Z,8.90
2023-04-08T01:21:15.915Z,8.90
2023-04-08T01:23:55.815Z,8.90
2023-04-08T01:26:26.944Z,8.90
2023-04-08T01:28:57.574Z,8.90
2023-04-08T01:31:26.533Z,8.90
2023-04-08T01:33:56.128Z,9.00
2023-04-08T01:36:25.226Z,8.90
2023-04-08T01:38:53.412Z,8.90
2023-04-08T01:41:22.432Z,8.90
2023-04-08T01:43:53.015Z,8.90
2023-04-08T01:46:22.894Z,8.90
2023-04-08T01:48:51.939Z,8.90
2023-04-08T01:51:20.823Z,8.90
2023-04-08T01:53:48.781Z,8.90
2023-04-08T01:56:17.487Z,8.90
2023-04-08T01:58:53.235Z,8.90
2023-04-08T02:01:23.762Z,8.80
2023-04-08T02:03:56.308Z,8.90
2023-04-08T02:06:24.670Z,8.80
2023-04-08T02:08:52.671Z,8.80
2023-04-08T02:11:21.161Z,8.90
2023-04-08T02:13:49.423Z,8.80
2023-04-08T02:16:24.057Z,8.80
2023-04-08T02:18:57.550Z,8.80
2023-04-08T02:21:34.326Z,8.80
2023-04-08T02:24:06.403Z,8.80
2023-04-08T02:26:36.023Z,8.80
2023-04-08T02:29:06.368Z,8.80
2023-04-08T02:31:36.433Z,8.80
2023-04-08T02:34:06.528Z,8.80
2023-04-08T02:36:35.191Z,8.80
2023-04-08T02:39:03.802Z,8.80
2023-04-08T02:41:32.066Z,8.80
2023-04-08T02:44:00.578Z,8.80
2023-04-08T02:46:28.472Z,8.80
2023-04-08T02:48:57.699Z,8.70
2023-04-08T02:51:26.248Z,8.70
2023-04-08T02:53:54.142Z,8.70
2023-04-08T02:56:21.989Z,8.70
2023-04-08T02:58:52.086Z,8.70
2023-04-08T03:01:20.116Z,8.70
2023-04-08T03:03:48.196Z,8.70
2023-04-08T03:06:17.626Z,8.70
2023-04-08T03:08:45.466Z,8.70
2023-04-08T03:11:13.291Z,8.70
2023-04-08T03:13:41.151Z,8.70
2023-04-08T03:16:09.188Z,8.70
2023-04-08T03:18:37.057Z,8.70
2023-04-08T03:21:05.085Z,8.70
2023-04-08T03:23:34.329Z,8.70
2023-04-08T03:26:02.279Z,8.70
2023-04-08T03:28:30.310Z,8.70
2023-04-08T03:30:58.350Z,8.70
2023-04-08T03:33:26.269Z,8.60
2023-04-08T03:35:55.028Z,8.70
2023-04-08T03:38:22.913Z,8.60
2023-04-08T03:40:52.119Z,8.60
2023-04-08T03:43:21.993Z,8.70
2023-04-08T03:45:49.853Z,8.60
2023-04-08T03:48:18.127Z,8.70
2023-04-08T03:50:46.016Z,8.70
2023-04-08T03:53:13.822Z,8.60
2023-04-08T03:55:41.641Z,8.60
2023-04-08T03:58:10.834Z,8.60
2023-04-08T04:00:38.714Z,8.60
2023-04-08T04:03:06.699Z,8.60
2023-04-08T04:05:34.714Z,8.60
2023-04-08T04:08:02.556Z,8.60
2023-04-08T04:10:30.402Z,8.60
2023-04-08T04:12:58.230Z,8.60
2023-04-08T04:15:27.558Z,8.60
2023-04-08T04:17:55.526Z,8.50
2023-04-08T04:20:23.365Z,8.50
2023-04-08T04:22:51.241Z,8.50
2023-04-08T04:25:19.130Z,8.50
2023-04-08T04:27:47.015Z,8.50
2023-04-08T04:30:15.610Z,8.50
2023-04-08T04:32:45.022Z,8.50
2023-04-08T04:35:13.796Z,8.50
2023-04-08T04:37:41.683Z,8.50
2023-04-08T04:40:10.046Z,8.40
2023-04-08T04:42:38.237Z,8.40
2023-04-08T04:45:07.124Z,8.40
2023-04-08T04:47:35.052Z,8.40
2023-04-08T04:50:04.695Z,8.40
2023-04-08T04:52:32.801Z,8.40
2023-04-08T04:55:00.967Z,8.40
2023-04-08T04:57:28.814Z,8.30
2023-04-08T04:59:56.677Z,8.40
2023-04-08T05:02:24.570Z,8.30
2023-04-08T05:04:53.654Z,8.30
2023-04-08T05:07:23.005Z,8.30
2023-04-08T05:09:50.936Z,8.30
2023-04-08T05:12:20.538Z,8.30
2023-04-08T05:14:48.549Z,8.30
2023-04-08T05:17:16.506Z,8.30
2023-04-08T05:19:44.410Z,8.20
2023-04-08T05:22:12.286Z,8.20
2023-04-08T05:24:41.581Z,8.20
2023-04-08T05:27:09.413Z,8.20
2023-04-08T05:29:37.275Z,8.20
2023-04-08T05:32:06.052Z,8.20
2023-04-08T05:34:33.924Z,8.20
2023-04-08T05:37:01.749Z,8.20
2023-04-08T05:39:30.957Z,8.10
2023-04-08T05:42:00.373Z,8.10
2023-04-08T05:44:28.173Z,8.10
2023-04-08T05:46:57.749Z,8.10
2023-04-08T05:49:25.754Z,8.10
2023-04-08T05:51:53.601Z,8.10
2023-04-08T05:54:21.443Z,8.10
2023-04-08T05:56:49.310Z,8.10
2023-04-08T05:59:18.564Z,8.10
2023-04-08T06:01:46.501Z,8.10
2023-04-08T06:04:14.434Z,8.00
2023-04-08T06:06:42.368Z,8.00
2023-04-08T06:09:10.918Z,8.00
2023-04-08T06:11:38.845Z,8.10
2023-04-08T06:14:06.718Z,8.00
2023-04-08T06:16:36.018Z,8.00
2023-04-08T06:19:03.904Z,8.00
2023-04-08T06:21:31.798Z,8.10
2023-04-08T06:23:59.613Z,8.10
2023-04-08T06:26:27.795Z,8.00
2023-04-08T06:28:55.647Z,8.00
2023-04-08T06:31:23.617Z,8.10
2023-04-08T06:33:53.246Z,8.00
2023-04-08T06:36:21.106Z,8.00
2023-04-08T06:38:49.103Z,8.10
2023-04-08T06:41:17.198Z,8.10
2023-04-08T06:43:45.097Z,8.10
2023-04-08T06:46:13.024Z,8.10
2023-04-08T06:48:40.878Z,8.10
2023-04-08T06:51:11.541Z,8.10
2023-04-08T06:53:39.438Z,8.10
2023-04-08T06:56:07.539Z,8.10
2023-04-08T06:58:35.428Z,8.10
2023-04-08T07:01:03.540Z,8.10
2023-04-08T07:03:31.516Z,8.10
2023-04-08T07:05:59.532Z,8.20
2023-04-08T07:08:28.769Z,8.20
2023-04-08T07:10:56.598Z,8.20
2023-04-08T07:13:24.753Z,8.20
2023-04-08T07:15:53.362Z,8.20
2023-04-08T07:18:21.774Z,8.20
2023-04-08T07:20:53.788Z,8.20
2023-04-08T07:23:22.120Z,8.30
2023-04-08T07:25:51.440Z,8.30
2023-04-08T07:28:19.284Z,8.30
2023-04-08T07:30:47.368Z,8.30
2023-04-08T07:33:15.862Z,8.40
2023-04-08T07:35:43.710Z,8.40
2023-04-08T07:38:13.378Z,8.40
2023-04-08T07:40:41.404Z,8.50
2023-04-08T07:43:10.821Z,8.50
2023-04-08T07:45:38.775Z,8.50
2023-04-08T07:48:12.708Z,8.50
2023-04-08T07:51:08.303Z,8.60
2023-04-08T07:53:28.511Z,8.60
2023-04-08T07:55:56.435Z,8.60
2023-04-08T07:58:26.370Z,8.70
2023-04-08T08:00:54.701Z,8.70
2023-04-08T08:03:22.719Z,8.70
2023-04-08T08:05:50.676Z,8.80
2023-04-08T08:08:18.509Z,8.80
2023-04-08T08:10:46.414Z,8.80
2023-04-08T08:13:17.088Z,8.90
2023-04-08T08:15:46.385Z,8.90
2023-04-08T08:18:14.249Z,8.90
2023-04-08T08:20:42.093Z,8.90
2023-04-08T08:23:09.908Z,8.90
2023-04-08T08:25:37.832Z,9.00
2023-04-08T08:28:06.374Z,9.00
2023-04-08T08:30:34.449Z,9.00
2023-04-08T08:33:03.718Z,9.00
2023-04-08T08:35:31.598Z,9.00
2023-04-08T08:37:59.504Z,9.00
2023-04-08T08:40:27.486Z,9.00
2023-04-08T08:42:55.398Z,9.10
2023-04-08T08:45:23.486Z,9.10
2023-04-08T08:47:52.444Z,9.10
2023-04-08T08:50:21.906Z,9.10
2023-04-08T08:52:51.183Z,9.10
2023-04-08T08:55:35.063Z,9.20
2023-04-08T08:58:11.097Z,9.20
2023-04-08T09:00:40.932Z,9.20
2023-04-08T09:03:17.533Z,9.30
2023-04-08T09:05:54.403Z,9.30
2023-04-08T09:08:26.405Z,9.40
2023-04-08T09:10:54.393Z,9.40
2023-04-08T09:13:23.754Z,9.50
2023-04-08T09:16:12.832Z,9.60
2023-04-08T09:18:43.289Z,9.60
2023-04-08T09:21:13.802Z,9.60
2023-04-08T09:23:43.665Z,9.70
2023-04-08T09:26:13.498Z,9.80
2023-04-08T09:28:42.985Z,9.70
2023-04-08T09:31:20.827Z,9.80
2023-04-08T09:33:49.300Z,9.90
2023-04-08T09:36:18.777Z,9.90
2023-04-08T09:38:47.883Z,9.90
2023-04-08T09:41:17.123Z,10.00
2023-04-08T09:43:50.406Z,10.00
2023-04-08T09:46:27.013Z,10.10
2023-04-08T09:49:03.685Z,10.10
2023-04-08T09:51:41.370Z,10.20
2023-04-08T09:54:14.730Z,10.20
2023-04-08T09:56:47.506Z,10.20
2023-04-08T09:59:17.644Z,10.20
2023-04-08T10:01:50.405Z,10.20
2023-04-08T10:04:21.826Z,10.30
2023-04-08T10:06:58.334Z,10.30
2023-04-08T10:09:28.038Z,10.30
2023-04-08T10:11:56.694Z,10.30
2023-04-08T10:14:28.530Z,10.30
2023-04-08T10:17:26.201Z,10.30
2023-04-08T10:19:54.563Z,10.30
2023-04-08T10:22:50.701Z,10.40
2023-04-08T10:25:32.404Z,10.40
2023-04-08T10:28:00.722Z,10.40
2023-04-08T10:30:42.022Z,10.50
2023-04-08T10:33:13.397Z,10.50
2023-04-08T10:35:46.263Z,10.50
2023-04-08T10:38:16.309Z,10.50
2023-04-08T10:40:45.237Z,10.50
2023-04-08T10:43:14.498Z,10.50
2023-04-08T10:45:44.377Z,10.50
2023-04-08T10:48:18.736Z,10.50
2023-04-08T10:50:54.195Z,10.60
2023-04-08T10:53:27.742Z,10.60
2023-04-08T10:55:55.764Z,10.60
2023-04-08T10:58:23.739Z,10.50
2023-04-08T11:00:51.576Z,10.50
2023-04-08T11:03:20.829Z,10.60
2023-04-08T11:05:50.830Z,10.60
2023-04-08T11:08:20.824Z,10.60
2023-04-08T11:10:51.612Z,10.60
2023-04-08T11:13:19.552Z,10.60
2023-04-08T11:15:47.557Z,10.60
2023-04-08T11:18:16.467Z,10.60
2023-04-08T11:20:45.853Z,10.70
2023-04-08T11:23:15.022Z,10.70
2023-04-08T11:25:43.761Z,10.70
2023-04-08T11:28:13.476Z,10.60
2023-04-08T11:30:42.770Z,10.60
2023-04-08T11:33:11.109Z,10.70
2023-04-08T11:35:42.162Z,10.70
2023-04-08T11:38:12.775Z,10.70
2023-04-08T11:40:40.752Z,10.70
2023-04-08T11:43:15.399Z,10.70
2023-04-08T11:45:43.941Z,10.70
2023-04-08T11:48:12.426Z,10.70
2023-04-08T11:50:40.704Z,10.70
2023-04-08T11:53:18.669Z,10.70
2023-04-08T11:55:46.743Z,10.70
2023-04-08T11:58:16.798Z,10.70
2023-04-08T12:00:45.595Z,10.70
2023-04-08T12:03:14.138Z,10.70
2023-04-08T12:05:42.502Z,10.70
2023-04-08T12:08:10.489Z,10.70
2023-04-08T12:10:38.581Z,10.70
2023-04-08T12:13:06.685Z,10.80
2023-04-08T12:15:35.971Z,10.80
2023-04-08T12:18:04.062Z,10.80
2023-04-08T12:20:32.030Z,10.80
2023-04-08T12:22:59.935Z,10.80
2023-04-08T12:25:29.145Z,10.80
2023-04-08T12:27:57.026Z,10.80
2023-04-08T12:30:24.927Z,10.80
2023-04-08T12:32:55.233Z,10.90
2023-04-08T12:35:23.300Z,10.90
2023-04-08T12:37:51.180Z,10.90
2023-04-08T12:40:20.523Z,11.00
2023-04-08T12:42:48.524Z,11.00
2023-04-08T12:45:16.598Z,11.00
2023-04-08T12:47:44.586Z,11.00
2023-04-08T12:50:15.111Z,11.00
2023-04-08T12:52:43.000Z,11.00
2023-04-08T12:55:11.635Z,11.10
2023-04-08T12:57:39.452Z,11.10
2023-04-08T13:00:08.533Z,11.10
2023-04-08T13:02:36.501Z,11.10
2023-04-08T13:05:04.937Z,11.20
2023-04-08T13:07:34.243Z,11.20
2023-04-08T13:10:02.115Z,11.30
2023-04-08T13:12:30.076Z,11.30
2023-04-08T13:14:58.379Z,11.40
2023-04-08T13:17:26.231Z,11.40
2023-04-08T13:19:54.134Z,11.40
2023-04-08T13:22:21.998Z,11.30
2023-04-08T13:24:51.309Z,11.40
2023-04-08T13:27:19.200Z,11.40
2023-04-08T13:29:47.024Z,11.50
2023-04-08T13:32:14.945Z,11.50
2023-04-08T13:34:43.762Z,11.60
2023-04-08T13:37:11.901Z,11.70
2023-04-08T13:39:39.763Z,11.70
2023-04-08T13:42:08.936Z,11.80
2023-04-08T13:44:36.989Z,11.80
2023-04-08T13:47:05.011Z,11.90
2023-04-08T13:49:32.882Z,12.00
2023-04-08T13:52:00.857Z,12.00
2023-04-08T13:54:28.732Z,12.00
2023-04-08T13:56:57.545Z,12.10
2023-04-08T13:59:28.281Z,12.10
2023-04-08T14:01:56.194Z,12.20
2023-04-08T14:04:24.659Z,12.20
2023-04-08T14:06:53.210Z,12.20
2023-04-08T14:09:21.593Z,12.20
2023-04-08T14:11:49.481Z,12.30
2023-04-08T14:14:17.332Z,12.30
2023-04-08T14:16:46.629Z,12.30
2023-04-08T14:19:14.968Z,12.30
2023-04-08T14:21:42.900Z,12.40
2023-04-08T14:24:10.870Z,12.50
2023-04-08T14:26:38.748Z,12.50
2023-04-08T14:29:07.610Z,12.50
2023-04-08T14:31:36.411Z,12.40
2023-04-08T14:34:08.385Z,12.40
2023-04-08T14:36:36.238Z,12.40
2023-04-08T14:39:05.052Z,12.50
2023-04-08T14:41:32.939Z,12.50
2023-04-08T14:44:00.849Z,12.50
2023-04-08T14:46:29.276Z,12.50
2023-04-08T14:48:57.262Z,12.60
2023-04-08T14:51:26.516Z,12.50
2023-04-08T14:53:54.403Z,12.50
2023-04-08T14:56:22.310Z,12.50
2023-04-08T14:58:50.472Z,12.40
2023-04-08T15:01:18.446Z,12.50
2023-04-08T15:03:47.324Z,12.50
2023-04-08T15:06:17.650Z,12.60
2023-04-08T15:08:46.917Z,12.60
2023-04-08T15:11:14.752Z,12.60
2023-04-08T15:13:42.747Z,12.70
2023-04-08T15:16:10.653Z,12.70
2023-04-08T15:18:38.678Z,12.70
2023-04-08T15:21:06.993Z,12.70
2023-04-08T15:23:34.831Z,12.60
2023-04-08T15:26:04.314Z,12.60
2023-04-08T15:28:33.166Z,12.60
2023-04-08T15:31:01.647Z,12.50
2023-04-08T15:33:29.598Z,12.40
2023-04-08T15:35:59.705Z,12.40
2023-04-08T15:38:28.127Z,12.40
2023-04-08T15:40:56.059Z,12.40
2023-04-08T15:43:25.312Z,12.30
2023-04-08T15:45:53.183Z,12.30
2023-04-08T15:48:21.369Z,12.30
2023-04-08T15:50:49.316Z,12.30
2023-04-08T15:53:17.184Z,12.30
2023-04-08T15:55:45.256Z,12.20
2023-04-08T15:58:13.063Z,12.20
2023-04-08T16:00:42.334Z,12.20
2023-04-08T16:03:11.957Z,12.20
2023-04-08T16:05:41.645Z,12.20
2023-04-08T16:08:09.999Z,12.20
2023-04-08T16:10:37.894Z,12.20
2023-04-08T16:13:06.273Z,12.20
2023-04-08T16:15:35.364Z,12.30
2023-04-08T16:18:06.338Z,12.30
2023-04-08T16:20:34.709Z,12.20
2023-04-08T16:23:02.606Z,12.20
2023-04-08T16:25:31.064Z,12.20
2023-04-08T16:27:58.897Z,12.20
2023-04-08T16:30:27.384Z,12.30
2023-04-08T16:32:55.326Z,12.30
2023-04-08T16:35:24.658Z,12.20
2023-04-08T16:37:55.495Z,12.20
2023-04-08T16:40:23.403Z,12.20
2023-04-08T16:42:51.349Z,12.20
2023-04-08T16:45:19.460Z,12.20
2023-04-08T16:47:47.484Z,12.20
2023-04-08T16:50:15.883Z,12.20
2023-04-08T16:52:49.446Z,12.20
2023-04-08T16:55:17.883Z,12.20
2023-04-08T16:57:45.880Z,12.20
2023-04-08T17:00:16.005Z,12.20
2023-04-08T17:02:45.018Z,12.20
2023-04-08T17:05:13.117Z,12.20
2023-04-08T17:07:41.016Z,12.20
2023-04-08T17:10:11.454Z,12.20
2023-04-08T17:12:39.361Z,12.20
2023-04-08T17:15:08.385Z,12.20
2023-04-08T17:17:36.581Z,12.20
2023-04-08T17:20:05.224Z,12.20
2023-04-08T17:22:33.070Z,12.20
2023-04-08T17:25:01.264Z,12.10
2023-04-08T17:27:30.511Z,12.10
2023-04-08T17:29:58.445Z,12.10
2023-04-08T17:32:27.145Z,12.10
2023-04-08T17:34:55.488Z,12.10
2023-04-08T17:37:23.320Z,12.10
2023-04-08T17:39:51.701Z,12.10
2023-04-08T17:42:22.718Z,12.10
2023-04-08T17:44:52.759Z,12.10
2023-04-08T17:47:21.045Z,12.10
2023-04-08T17:49:48.981Z,12.00
2023-04-08T17:52:16.996Z,12.00
2023-04-08T17:54:44.818Z,12.00
2023-04-08T17:57:12.891Z,12.00
2023-04-08T17:59:43.639Z,12.00
2023-04-08T18:02:13.359Z,12.00
2023-04-08T18:04:41.468Z,11.90
2023-04-08T18:07:09.311Z,11.90
2023-04-08T18:09:37.235Z,11.90
2023-04-08T18:12:06.310Z,11.90
2023-04-08T18:14:35.799Z,11.90
2023-04-08T18:17:04.658Z,11.90
2023-04-08T18:19:33.883Z,11.90
2023-04-08T18:22:01.716Z,11.90
2023-04-08T18:33:10.109Z,11.80
2023-04-08T18:35:39.333Z,11.80
2023-04-08T18:38:07.195Z,11.80
2023-04-08T18:40:35.409Z,11.80
2023-04-08T18:43:04.892Z,11.70
2023-04-08T18:45:32.904Z,11.70
2023-04-08T18:48:00.940Z,11.70
2023-04-08T18:50:28.905Z,11.70
2023-04-08T18:52:58.256Z,11.70
2023-04-08T18:55:26.297Z,11.70
2023-04-08T18:57:55.104Z,11.70
2023-04-08T19:00:23.142Z,11.70
2023-04-08T19:02:51.125Z,11.70
2023-04-08T19:05:19.299Z,11.70
2023-04-08T19:07:47.331Z,11.70
2023-04-08T19:10:16.521Z,11.60
2023-04-08T19:12:44.469Z,11.60
2023-04-08T19:15:12.589Z,11.60
2023-04-08T19:17:40.453Z,11.60
2023-04-08T19:20:11.708Z,11.60
2023-04-08T19:22:40.622Z,11.60
2023-04-08T19:25:09.169Z,11.60
2023-04-08T19:27:38.631Z,11.60
2023-04-08T19:30:07.818Z,11.50
2023-04-08T19:32:36.310Z,11.50
2023-04-08T19:35:04.817Z,11.50
2023-04-08T19:37:32.693Z,11.50
2023-04-08T19:40:00.600Z,11.50
2023-04-08T19:42:29.110Z,11.50
2023-04-08T19:45:00.963Z,11.50
2023-04-08T19:47:29.362Z,11.50
2023-04-08T19:49:58.116Z,11.50
2023-04-08T19:52:26.623Z,11.50
2023-04-08T19:54:54.826Z,11.40
2023-04-08T19:57:22.663Z,11.40
2023-04-08T19:59:50.573Z,11.40
2023-04-08T20:02:19.992Z,11.40
2023-04-08T20:04:48.044Z,11.40
2023-04-08T20:07:15.940Z,11.40
2023-04-08T20:09:43.772Z,11.40
2023-04-08T20:12:12.074Z,11.40
2023-04-08T20:14:43.963Z,11.30
2023-04-08T20:17:12.302Z,11.30
2023-04-08T20:19:41.561Z,11.30
2023-04-08T20:22:09.379Z,11.30
2023-04-08T20:24:37.201Z,11.30
2023-04-08T20:27:05.081Z,11.30
2023-04-08T20:29:33.301Z,11.30
2023-04-08T20:32:01.263Z,11.30
2023-04-08T20:34:29.106Z,11.20
2023-04-08T20:36:58.366Z,11.20
2023-04-08T20:39:29.813Z,11.20
2023-04-08T20:41:58.027Z,11.20
2023-04-08T20:44:25.880Z,11.20
2023-04-08T20:46:54.611Z,11.20
2023-04-08T20:49:22.507Z,11.20
2023-04-08T20:51:50.555Z,11.20
2023-04-08T20:54:19.801Z,11.10
2023-04-08T20:56:47.706Z,11.10
2023-04-08T20:59:15.568Z,11.10
2023-04-08T21:01:43.494Z,11.10
2023-04-08T21:04:11.400Z,11.10
2023-04-08T21:06:39.301Z,11.10
2023-04-08T21:09:07.154Z,11.10
2023-04-08T21:11:36.378Z,11.00
2023-04-08T21:14:04.535Z,11.00
2023-04-08T21:16:32.400Z,11.00
2023-04-08T21:19:01.824Z,11.00
2023-04-08T21:21:29.784Z,11.00
2023-04-08T21:23:57.670Z,11.00
2023-04-08T21:26:26.028Z,11.00
2023-04-08T21:28:55.241Z,11.00
2023-04-08T21:31:23.200Z,10.90
2023-04-08T21:33:51.066Z,10.90
2023-04-08T21:36:20.280Z,10.90
2023-04-08T21:38:48.246Z,10.90
2023-04-08T21:41:17.157Z,10.80
2023-04-08T21:43:45.037Z,10.80
2023-04-08T21:46:14.234Z,10.80
2023-04-08T21:48:42.087Z,10.80
2023-04-08T21:51:10.103Z,10.80
2023-04-08T21:53:39.652Z,10.70
2023-04-08T21:56:08.312Z,10.70
2023-04-08T21:58:36.302Z,10.70
2023-04-08T22:01:04.837Z,10.70
2023-04-08T22:03:34.136Z,10.60
2023-04-08T22:06:02.006Z,10.60
2023-04-08T22:08:32.370Z,10.60
2023-04-08T22:11:00.199Z,10.60
2023-04-08T22:13:28.029Z,10.60
2023-04-08T22:15:56.142Z,10.60
2023-04-08T22:18:23.990Z,10.60
2023-04-08T22:20:53.169Z,10.60
2023-04-08T22:23:21.129Z,10.60
2023-04-08T22:25:50.363Z,10.50
2023-04-08T22:28:18.344Z,10.50
2023-04-08T22:30:46.517Z,10.50
2023-04-08T22:33:14.372Z,10.50
2023-04-08T22:35:42.899Z,10.50
2023-04-08T22:38:12.132Z,10.50
2023-04-08T22:40:39.998Z,10.50
2023-04-08T22:43:07.822Z,10.50
2023-04-08T22:45:37.511Z,10.40
2023-04-08T22:48:05.937Z,10.50
2023-04-08T22:50:34.055Z,10.40
2023-04-08T22:53:01.916Z,10.40
2023-04-08T22:55:31.229Z,10.40
2023-04-08T22:57:59.131Z,10.40
2023-04-08T23:00:27.397Z,10.40
2023-04-08T23:02:55.610Z,10.40
2023-04-08T23:05:23.723Z,10.40
2023-04-08T23:07:51.649Z,10.40
2023-04-08T23:10:19.561Z,10.40
2023-04-08T23:12:48.717Z,10.30
2023-04-08T23:15:16.574Z,10.30
2023-04-08T23:17:44.452Z,10.30
2023-04-08T23:20:13.315Z,10.30
2023-04-08T23:22:41.152Z,10.30
2023-04-08T23:25:10.154Z,10.30
2023-04-08T23:27:38.046Z,10.30
2023-04-08T23:30:13.247Z,10.30
2023-04-08T23:32:41.256Z,10.20
2023-04-08T23:35:09.940Z,10.20
2023-04-08T23:37:37.819Z,10.20
2023-04-08T23:40:07.289Z,10.20
2023-04-08T23:42:35.468Z,10.20
2023-04-08T23:45:03.650Z,10.10
2023-04-08T23:47:35.749Z,10.10
2023-04-08T23:50:03.734Z,10.10
2023-04-08T23:52:31.522Z,10.10
2023-04-08T23:54:59.363Z,10.10
2023-04-08T23:57:27.220Z,10.10
2023-04-08T23:59:55.078Z,10.10
